This is the latest recevied weather packets stored in our database for station/object N9DMT-13. If no packets are shown the sender has not sent any weather packets the latest 10 day(s).
| Time | Temp. | Humidity | Pressure | Rain* | Wind** | Luminosity | Snow |
|---|---|---|---|---|---|---|---|
| 1778156397 | 1.67° C | 83% | 981.9 hPa | 0 mm | - | - | - |
| 1778156097 | 1.11° C | 85% | 981.9 hPa | 0 mm | - | - | - |
| 1778155796 | 0.56° C | 85% | 982.1 hPa | 0 mm | - | - | - |
| 1778155495 | 1.11° C | 83% | 981.9 hPa | 0 mm | - | - | - |
| 1778155194 | 1.67° C | 83% | 982.1 hPa | 0 mm | - | - | - |
| 1778154893 | 0.56° C | 89% | 982.1 hPa | 0 mm | - | - | - |
| 1778154592 | -0.56° C | 90% | 982 hPa | 0 mm | - | - | - |
| 1778154292 | -0.56° C | 89% | 982 hPa | 0 mm | - | - | - |
| 1778153991 | -0.56° C | 89% | 982.1 hPa | 0 mm | - | - | - |
| 1778153690 | -0.56° C | 89% | 982 hPa | 0 mm | - | - | - |
| 1778153389 | -0.56° C | 89% | 981.9 hPa | 0 mm | - | - | - |
| 1778153089 | -0.56° C | 90% | 981.8 hPa | 0 mm | - | - | - |
| 1778152787 | -0.56° C | 90% | 982 hPa | 0 mm | - | - | - |
| 1778152487 | -0.56° C | 90% | 982 hPa | 0 mm | - | - | - |
| 1778152186 | -0.56° C | 89% | 982.2 hPa | 0 mm | - | - | - |
| 1778151885 | -0.56° C | 89% | 982 hPa | 0 mm | - | - | - |
| 1778151583 | -0.56° C | 89% | 982.3 hPa | 0 mm | - | - | - |
| 1778151283 | -0.56° C | 89% | 982.2 hPa | 0 mm | - | - | - |
| 1778150982 | -0.56° C | 89% | 982 hPa | 0 mm | - | - | - |
| 1778150681 | -0.56° C | 89% | 982.1 hPa | 0 mm | - | - | - |
| 1778150380 | -1.11° C | 89% | 982.2 hPa | 0 mm | - | - | - |
| 1778150080 | -1.11° C | 89% | 982.1 hPa | 0 mm | - | - | - |
| 1778149779 | -1.11° C | 90% | 982.1 hPa | 0 mm | - | - | - |
| 1778149478 | -1.11° C | 90% | 982.2 hPa | 0 mm | - | - | - |
| 1778149177 | -1.11° C | 91% | 982.1 hPa | 0 mm | - | - | - |
* Rain latest hour (hover to see other rain measurements)
** Current wind speed in m/s (hover to see current wind gust speed)